AirNav   Pilot Hours Calculator
 
 1097 users online  

37V Arapahoe Municipal Airport
Arapahoe, Nebraska, USA

GOING TO ARAPAHOE?


FAA INFORMATION EFFECTIVE 08 SEPTEMBER 2022

Location

FAA Identifier: 37V
Lat/Long: 40-20-29.7000N 099-54-28.1000W
40-20.495000N 099-54.468333W
40.3415833,-99.9078056
(estimated)
Elevation: 2273 ft. / 693 m (estimated)
Variation: 08E (1985)
From city: 2 miles N of ARAPAHOE, NE
Time zone: UTC -5 (UTC -6 during Standard Time)
Zip code: 68922

Airport Operations

Airport use: Open to the public
Activation date: 03/1972
Control tower: no
ARTCC: DENVER CENTER
FSS: COLUMBUS FLIGHT SERVICE STATION
NOTAMs facility: OLU (NOTAM-D service available)
Attendance:  UNATTENDED
Wind indicator: yes
Segmented circle: no
Beacon: white-green (lighted land airport)
Operates sunset to sunrise.

Airport Communications

CTAF: 122.9

Nearby radio navigation aids

VOR radial/distance  VOR name  Freq  Var
OZBr163/(32.0)COZAD VOR109.0009E
MCKr067/32.5MC COOK VOR/DME115.3008E

 
NDB name  Hdg/Dist  Freq  Var  ID
NORTON350/29.223008ENRN -. .-. -.

Airport Services

Fuel available: 100LL
Parking: hangars and tiedowns
Airframe service: NONE
Powerplant service: NONE
Bottled oxygen: NONE
Bulk oxygen: NONE

Runway Information

Runway 15/33

Dimensions: 3000 x 50 ft. / 914 x 15 m
Surface: asphalt, in fair condition
Runway edge lights: medium intensity
RUNWAY 15  RUNWAY 33
Latitude: 40-20.732193N40-20.258738N
Longitude: 099-54.560927W099-54.375702W
Elevation: 2273.0 ft.2261.0 ft.
Traffic pattern: leftleft
Runway heading: 155 magnetic, 163 true335 magnetic, 343 true
Markings: basic, in good conditionbasic, in good condition
Obstructions: none12 ft. road, 565 ft. from runway, 30:1 slope to clear

Airport Ownership and Management from official FAA records

Ownership: Publicly-owned
Owner: ARAPAHOE ARPT AUTHORITY
P.O. BOX 331
ARAPAHOE, NE 68922-0331
Phone 308-962-7218
TODD WEVERKA IS CHAIRMAN OF THE ARAPAHOE AIRPORT AUTHORITY (BS 7/2013)
Manager: TODD WEVERKA
P.O. BOX 331
ARAPAHOE, NE 68922-0331
Phone (308) 999-0073

Airport Operational Statistics

Aircraft based on the field: 1
Single engine airplanes: 1
    
Aircraft operations: avg 81/week *
94% local general aviation
6% transient general aviation
* for 12-month period ending 02 August 2021

Additional Remarks

FOR CD CTC DENVER ARTCC AT 303-651-4257.

Instrument Procedures

There are no published instrument procedures at 37V.

Some nearby airports with instrument procedures:

KCSB - Cambridge Municipal Airport (12 nm W)
KHDE - Brewster Field Airport (27 nm E)
KLXN - Jim Kelly Field Airport (28 nm N)
4D9 - Alma Municipal Airport (29 nm SE)
KNRN - Norton Municipal Airport (29 nm S)
 
Loc | Ops | Rwys | IFR | FBO | Links
Com | Nav | Svcs | Stats | Notes
Area around 37V (Arapahoe Municipal Airport)
 
Road maps at: MapQuest Bing Google
 
Aerial photo
WARNING: Photo may not be current or correct
Aerial photo of 37V (Arapahoe Municipal Airport)
Do you have a better or more recent aerial photo of Arapahoe Municipal Airport that you would like to share? If so, please send us your photo.

 
Sectional chart

 
Airport distance calculator
Flying to Arapahoe Municipal Airport? Find the distance to fly.

From to 37V

Sunrise and sunset
Times for 25-Sep-2022
 Local
(UTC-5)
 Zulu
(UTC)
Morning civil twilight07:0412:04
Sunrise07:3112:31
Sunset19:3100:31
Evening civil twilight19:5900:59

Current date and time
Zulu (UTC)  25-Sep-2022 16:03:36
Local (UTC-5)  25-Sep-2022 11:03:36
 
METAR
KLXN 
27nm N 
251555Z AUTO 29009KT 10SM CLR 19/07 A3030 RMK AO2 T01860068
KHDE 
28nm E 
251555Z AUTO 33008KT 10SM CLR 19/07 A3028 RMK AO2 T01860066
KNRN 
29nm S 
251555Z AUTO 32005KT 10SM CLR 20/05 A3034 RMK AO2
KMCK 
32nm W 
251553Z AUTO 32008KT 10SM CLR 21/04 A3032 RMK AO2 SLP254 T02060044
KOIN 
42nm SW 
251555Z AUTO 01005KT 10SM CLR 19/05 A3037 RMK AO1 T01930054
KEAR 
47nm NE 
251556Z AUTO 32009KT 10SM CLR 21/06 A3027 RMK AO2 SLP240 T02060061
TAF
KMCK 
32nm W 
251120Z 2512/2612 31008KT P6SM SKC FM251900 33012G19KT P6SM SCT280 FM252300 35009KT P6SM FEW250 FM260200 VRB05KT P6SM SKC
NOTAMs
Click for the latest NOTAMs
NOTAMs are issued by the DoD/FAA and will open in a separate window not controlled by AirNav.

 

 
 

FBO, Fuel Providers, and Aircraft Ground Support

  
 Business Name 
 
 Contact 
 
 Services / Description 
 
Fuel Prices
 
Comments
  
Arapahoe Airport Authority 308-962-7218
[web site]
Airport management, Aviation fuel, Aircraft parking (ramp or tiedown), Hangars, Flight training, Aircraft maintenance, Aircraft modifications, Aircraft interiors, Courtesy transportation, ...

More info about Arapahoe Airport Authority
independent
100LL
SS $5.48 
 Updated 30-Aug-2022
 
   write
SS=Self service
Update Fuel Prices
 

Would you like to see your business listed on this page?

 If your business provides an interesting product or service to pilots, flight crews, aircraft, or users of the Arapahoe Municipal Airport, you should consider listing it here.  To start the listing process, click on the button below
 
Add a business
 

Other Pages about Arapahoe Municipal Airport

Update a link
 
Copyright © AirNav, LLC. All rights reserved. Privacy Policy  Contact